Дата Пункты Температура Давл., мм. Влажн., % Ветер Погодные явления
Воздуха Воды Направл. Скорость
15.01.20 05:00 Одесса 6.0 6.0 771 86 Пд 2 17 ГОДИН
15.01.20 02:00 Одесса 7.0 6.0 771 87 Пд 5 14 ГОДИН
15.01.20 11:00 Одесса 7.0 6.0 771 88 Пд 4 11 ГОДИН
15.01.20 08:00 Одесса 5.0 6.0 770 98 Пд-С 2 08 ГОДИН
15.01.20 05:00 Одесса 2.0 5.0 770 100 Пн 1 05 ГОДИН
15.01.20 02:00 Одесса 3.0 5.0 769 100 Пн 0 02 ГОДИНИ
14.01.20 11:00 Одесса 3.0 5.0 768 100 Пн-С 1 23 ГОДИНИ
14.01.20 08:00 Одесса 3.0 5.0 768 96 Пн 0 20 ГОДИН
14.01.20 05:00 Одесса 4.0 6.0 767 92 Пн 0 17 ГОДИН
14.01.20 02:00 Одесса 5.0 6.0 766 88 Пн 1 14 ГОДИН
14.01.20 11:00 Одесса 4.0 5.0 767 86 Пн 1 11 ГОДИН
14.01.20 08:00 Одесса 1.0 5.0 766 94 Пн 1 08 ГОДИН
14.01.20 05:00 Одесса -1.0 6.0 765 92 Пн 1 05 ГОДИН
14.01.20 02:00 Одесса 2.0 6.0 766 81 Пн 2 02 ГОДИНИ
13.01.20 11:00 Одесса 2.0 6.0 765 80 З 2 23 ГОДИНИ
13.01.20 08:00 Одесса 2.0 6.0 765 78 З 2 20 ГОДИН
13.01.20 05:00 Одесса 4.0 6.0 765 73 З 1 17 ГОДИН
13.01.20 02:00 Одесса 7.0 6.0 764 64 З 2 14 ГОДИН
13.01.20 11:00 Одесса 5.0 6.0 765 76 Пд-З 3 11 ГОДИН
13.01.20 08:00 Одесса 2.0 6.0 766 80 Пд-З 2 08 ГОДИН
Количество строк
1 2 3 4 5 6 7 8 9 10
Page 5 of 579